Time;durP1;ratioP1;P1;durP2;ratioP2;P2;SDS_P1;SDS_P2;PMS_P1;PMS_P2;Temp;Humidity;BMP_temperature;BMP_pressure;BME280_temperature;BME280_humidity;BME280_pressure;Samples;Min_cycle;Max_cycle;Signal;HPM_P1;HPM_P2
2023/06/20 00:01:03;;;;;;;;;;;18.80;99.90;;;;;;4995037;28;19921;-69
2023/06/20 00:03:29;;;;;;;;;;;18.80;99.90;;;;;;5012956;28;19917;-69
2023/06/20 00:05:54;;;;;;;;;;;18.80;99.90;;;;;;5006442;28;19922;-71
2023/06/20 00:08:20;;;;;;;;;;;18.80;99.90;;;;;;5014616;28;19927;-69
2023/06/20 00:10:45;;;;;;;;;;;18.70;99.90;;;;;;4986620;28;19918;-69
2023/06/20 00:13:11;;;;;;;;;;;18.70;99.90;;;;;;4976231;28;20097;-74
2023/06/20 00:15:37;;;;;;;;;;;18.70;99.90;;;;;;4992210;28;19921;-72
2023/06/20 00:18:02;;;;;;;;;;;18.70;99.90;;;;;;4990239;28;19921;-69
2023/06/20 00:20:28;;;;;;;;;;;18.70;99.90;;;;;;4988326;28;19948;-69
2023/06/20 00:22:54;;;;;;;;;;;18.70;99.90;;;;;;4986548;28;20335;-69
2023/06/20 00:25:20;;;;;;;;;;;18.60;99.90;;;;;;4992109;28;19999;-69
2023/06/20 00:27:46;;;;;;;;;;;18.60;99.90;;;;;;4983949;28;20312;-69
2023/06/20 00:30:12;;;;;;;;;;;18.60;99.90;;;;;;4992291;28;19917;-69
2023/06/20 00:32:37;;;;;;;;;;;18.60;99.90;;;;;;4994186;28;19967;-68
2023/06/20 00:35:03;;;;;;;;;;;18.60;99.90;;;;;;5015777;28;20030;-69
2023/06/20 00:37:28;;;;;;;;;;;18.60;99.90;;;;;;4993336;28;20280;-69
2023/06/20 00:39:54;;;;;;;;;;;18.60;99.90;;;;;;4989657;28;19921;-69
2023/06/20 00:42:23;;;;;;;;;;;18.50;99.90;;;;;;4986554;28;20048;-69
2023/06/20 00:44:49;;;;;;;;;;;18.50;99.90;;;;;;4980672;28;20386;-69
2023/06/20 00:47:16;;;;;;;;;;;18.60;99.90;;;;;;4972734;28;20452;-69
2023/06/20 00:49:42;;;;;;;;;;;18.50;99.90;;;;;;5003727;28;20326;-69
2023/06/20 00:52:08;;;;;;;;;;;18.50;99.90;;;;;;5000938;28;20998;-69
2023/06/20 00:54:33;;;;;;;;;;;18.50;99.90;;;;;;4988551;28;19921;-69
2023/06/20 00:56:59;;;;;;;;;;;18.50;99.90;;;;;;4996969;28;19917;-68
2023/06/20 00:59:24;;;;;;;;;;;18.50;99.90;;;;;;4992043;28;19921;-69
2023/06/20 01:01:50;;;;;;;;;;;18.50;99.90;;;;;;4988910;28;19921;-69
2023/06/20 01:04:15;;;;;;;;;;;18.50;99.90;;;;;;5014258;28;19922;-69
2023/06/20 01:06:44;;;;;;;;;;;18.50;99.90;;;;;;4986645;28;19960;-69
2023/06/20 01:09:09;;;;;;;;;;;18.50;99.90;;;;;;4994409;28;20387;-69
2023/06/20 01:11:54;;;;;;;;;;;18.50;99.90;;;;;;4997177;28;19923;-69
2023/06/20 01:14:38;;;;;;;;;;;18.50;99.90;;;;;;4992350;28;19918;-69
2023/06/20 01:17:08;;;;;;;;;;;18.50;99.90;;;;;;4986330;28;19924;-68
2023/06/20 01:19:33;;;;;;;;;;;18.60;99.90;;;;;;4986464;28;20015;-69
2023/06/20 01:22:00;;;;;;;;;;;18.60;99.90;;;;;;4989429;28;20392;-69
2023/06/20 01:24:29;;;;;;;;;;;18.60;99.90;;;;;;5012955;28;19975;-69
2023/06/20 01:27:12;;;;;;;;;;;18.60;99.90;;;;;;5005566;28;20432;-69
2023/06/20 01:29:40;;;;;;;;;;;18.60;99.90;;;;;;4983630;28;20130;-69
2023/06/20 01:32:10;;;;;;;;;;;18.60;99.90;;;;;;4982802;28;19916;-69
2023/06/20 01:34:39;;;;;;;;;;;18.60;99.90;;;;;;4991989;28;19925;-69
2023/06/20 01:37:06;;;;;;;;;;;18.60;99.90;;;;;;4998306;28;19975;-69
2023/06/20 01:39:36;;;;;;;;;;;18.60;99.90;;;;;;4992030;28;19925;-69
2023/06/20 01:42:03;;;;;;;;;;;18.60;99.90;;;;;;4997614;28;20363;-69
2023/06/20 01:44:29;;;;;;;;;;;18.60;99.90;;;;;;4991139;28;19999;-69
2023/06/20 01:46:56;;;;;;;;;;;18.60;99.90;;;;;;4998575;28;19917;-69
2023/06/20 01:49:23;;;;;;;;;;;18.60;99.90;;;;;;4997218;28;19955;-69
2023/06/20 01:51:49;;;;;;;;;;;18.60;99.90;;;;;;5008039;28;20206;-69
2023/06/20 01:54:16;;;;;;;;;;;18.60;99.90;;;;;;4983906;28;20000;-69
2023/06/20 01:56:43;;;;;;;;;;;18.60;99.90;;;;;;5012049;28;20419;-69
2023/06/20 01:59:12;;;;;;;;;;;18.50;99.90;;;;;;4991882;28;19925;-69
2023/06/20 02:01:42;;;;;;;;;;;18.50;99.90;;;;;;4988869;28;19929;-69
2023/06/20 02:04:08;;;;;;;;;;;18.50;99.90;;;;;;4996043;28;20386;-69
2023/06/20 02:06:35;;;;;;;;;;;18.50;99.90;;;;;;5002446;28;19922;-69
2023/06/20 02:09:01;;;;;;;;;;;18.50;99.90;;;;;;4995801;28;19917;-69
2023/06/20 02:11:27;;;;;;;;;;;18.50;99.90;;;;;;4998790;28;19925;-69
2023/06/20 02:13:55;;;;;;;;;;;18.50;99.90;;;;;;5009468;28;20372;-69
2023/06/20 02:16:21;;;;;;;;;;;18.40;99.90;;;;;;4974393;28;19932;-69
2023/06/20 02:18:48;;;;;;;;;;;18.50;99.90;;;;;;4988878;28;20034;-69
2023/06/20 02:21:19;;;;;;;;;;;18.50;99.90;;;;;;4994836;28;19921;-69
2023/06/20 02:23:48;;;;;;;;;;;18.50;99.90;;;;;;4991036;28;20005;-68
2023/06/20 02:26:14;;;;;;;;;;;18.40;99.90;;;;;;4990455;28;19967;-69
2023/06/20 02:28:47;;;;;;;;;;;18.40;99.90;;;;;;4993456;28;19922;-69
2023/06/20 02:31:14;;;;;;;;;;;18.40;99.90;;;;;;4994673;28;19921;-69
2023/06/20 02:33:41;;;;;;;;;;;18.50;99.90;;;;;;5007971;28;19918;-69
2023/06/20 02:36:07;;;;;;;;;;;18.40;99.90;;;;;;5010566;28;19932;-69
2023/06/20 02:38:35;;;;;;;;;;;18.40;99.90;;;;;;4999561;28;20215;-69
2023/06/20 02:41:00;;;;;;;;;;;18.40;99.90;;;;;;5007715;28;20191;-69
2023/06/20 02:43:27;;;;;;;;;;;18.40;99.90;;;;;;4983047;28;19917;-69
2023/06/20 02:46:11;;;;;;;;;;;18.40;99.90;;;;;;4991469;28;20418;-69
2023/06/20 02:48:45;;;;;;;;;;;18.40;99.90;;;;;;4990629;28;19998;-69
2023/06/20 02:51:21;;;;;;;;;;;18.40;99.90;;;;;;4985130;28;19952;-69
2023/06/20 02:53:52;;;;;;;;;;;18.40;99.90;;;;;;5006088;28;19924;-69
2023/06/20 02:56:18;;;;;;;;;;;18.40;99.90;;;;;;4989384;28;20380;-69
2023/06/20 02:58:46;;;;;;;;;;;18.40;99.90;;;;;;4993897;28;20287;-69
2023/06/20 03:01:14;;;;;;;;;;;18.40;99.90;;;;;;4971597;28;19964;-69
2023/06/20 03:03:43;;;;;;;;;;;18.40;99.90;;;;;;4988977;28;19924;-69
2023/06/20 03:06:14;;;;;;;;;;;18.40;99.90;;;;;;4988329;28;19921;-68
2023/06/20 03:08:41;;;;;;;;;;;18.40;99.90;;;;;;4981024;28;19924;-69
2023/06/20 03:11:07;;;;;;;;;;;18.40;99.90;;;;;;4976420;28;19948;-68
2023/06/20 03:13:33;;;;;;;;;;;18.40;99.90;;;;;;4996490;28;19921;-69
2023/06/20 03:15:58;;;;;;;;;;;18.40;99.90;;;;;;4982023;28;19925;-69
2023/06/20 03:18:24;;;;;;;;;;;18.40;99.90;;;;;;4971436;28;20225;-69
2023/06/20 03:20:50;;;;;;;;;;;18.40;99.90;;;;;;4977153;28;19925;-69
2023/06/20 03:23:15;;;;;;;;;;;18.40;99.90;;;;;;4982861;28;20588;-69
2023/06/20 03:25:41;;;;;;;;;;;18.40;99.90;;;;;;4990730;28;19928;-69
2023/06/20 03:28:09;;;;;;;;;;;18.40;99.90;;;;;;5007909;28;19925;-69
2023/06/20 03:30:35;;;;;;;;;;;18.40;99.90;;;;;;5007141;28;19925;-69
2023/06/20 03:33:00;;;;;;;;;;;18.40;99.90;;;;;;4993564;28;19917;-69
2023/06/20 03:35:26;;;;;;;;;;;18.40;99.90;;;;;;4992583;28;19925;-67
2023/06/20 03:37:53;;;;;;;;;;;18.40;99.90;;;;;;4993720;28;20019;-68
2023/06/20 03:40:18;;;;;;;;;;;18.40;99.90;;;;;;5013062;28;19921;-68
2023/06/20 03:42:44;;;;;;;;;;;18.40;99.90;;;;;;4991281;28;19940;-68
2023/06/20 03:45:12;;;;;;;;;;;18.40;99.90;;;;;;4991637;28;20008;-71
2023/06/20 03:47:41;;;;;;;;;;;18.40;99.90;;;;;;4984081;28;20032;-68
2023/06/20 03:50:06;;;;;;;;;;;18.40;99.90;;;;;;4994713;28;20510;-68
2023/06/20 03:52:32;;;;;;;;;;;18.40;99.90;;;;;;5002815;28;20462;-68
2023/06/20 03:54:57;;;;;;;;;;;18.40;99.90;;;;;;5010422;28;20286;-68
2023/06/20 03:57:25;;;;;;;;;;;18.50;99.90;;;;;;4986568;28;20352;-70
2023/06/20 03:59:51;;;;;;;;;;;18.40;99.90;;;;;;5008563;28;19975;-71
2023/06/20 04:02:16;;;;;;;;;;;18.40;99.90;;;;;;4991953;28;19929;-71
2023/06/20 04:04:49;;;;;;;;;;;18.50;99.90;;;;;;5005484;28;19969;-71
2023/06/20 04:07:18;;;;;;;;;;;18.50;99.90;;;;;;4987948;28;19944;-70
2023/06/20 04:09:44;;;;;;;;;;;18.50;99.90;;;;;;4991377;28;20386;-70
2023/06/20 04:12:10;;;;;;;;;;;18.50;99.90;;;;;;4987447;28;20371;-70
2023/06/20 04:14:35;;;;;;;;;;;18.50;99.90;;;;;;5007022;28;19959;-70
2023/06/20 04:17:01;;;;;;;;;;;18.50;99.90;;;;;;4989108;28;19963;-70
2023/06/20 04:19:26;;;;;;;;;;;18.60;99.90;;;;;;4994495;28;19960;-70
2023/06/20 04:21:52;;;;;;;;;;;18.60;99.90;;;;;;5012644;28;20290;-71
2023/06/20 04:24:17;;;;;;;;;;;18.60;99.90;;;;;;4991969;28;19925;-70
2023/06/20 04:26:43;;;;;;;;;;;18.60;99.90;;;;;;4969109;28;19929;-71
2023/06/20 04:29:08;;;;;;;;;;;18.60;99.90;;;;;;4983241;28;19960;-71
2023/06/20 04:31:34;;;;;;;;;;;18.60;99.90;;;;;;4988488;28;19921;-71
2023/06/20 04:34:00;;;;;;;;;;;18.60;99.90;;;;;;4990343;28;19925;-71
2023/06/20 04:36:26;;;;;;;;;;;18.70;99.90;;;;;;4992025;28;19925;-71
2023/06/20 04:38:52;;;;;;;;;;;18.70;99.90;;;;;;4987132;28;20358;-70
2023/06/20 04:41:18;;;;;;;;;;;18.70;99.90;;;;;;5003850;28;19925;-70
2023/06/20 04:43:44;;;;;;;;;;;18.70;99.90;;;;;;5004406;28;20571;-70
2023/06/20 04:46:13;;;;;;;;;;;18.80;99.90;;;;;;4984248;28;19917;-71
2023/06/20 04:48:39;;;;;;;;;;;18.80;99.90;;;;;;4984751;28;19924;-71
2023/06/20 04:51:07;;;;;;;;;;;18.80;99.90;;;;;;4986099;28;19925;-71
2023/06/20 04:53:33;;;;;;;;;;;18.80;99.90;;;;;;4987302;28;19963;-70
2023/06/20 04:55:59;;;;;;;;;;;18.80;99.90;;;;;;4984927;28;19918;-71
2023/06/20 04:58:28;;;;;;;;;;;18.90;99.90;;;;;;4986865;28;19917;-70
2023/06/20 05:01:00;;;;;;;;;;;18.90;99.90;;;;;;4997035;28;19922;-71
2023/06/20 05:03:25;;;;;;;;;;;18.90;99.90;;;;;;4973443;28;19933;-70
2023/06/20 05:05:51;;;;;;;;;;;18.90;99.90;;;;;;4967174;28;19917;-71
2023/06/20 05:08:17;;;;;;;;;;;18.90;99.90;;;;;;5019261;28;20400;-70
2023/06/20 05:10:43;;;;;;;;;;;18.90;99.90;;;;;;4991072;28;20055;-71
2023/06/20 05:13:08;;;;;;;;;;;19.00;99.90;;;;;;4988498;28;19979;-71
2023/06/20 05:15:34;;;;;;;;;;;18.90;99.90;;;;;;4984102;28;19924;-71
2023/06/20 05:18:00;;;;;;;;;;;19.00;99.90;;;;;;5014154;28;20374;-70
2023/06/20 05:20:25;;;;;;;;;;;19.00;99.90;;;;;;4994496;28;19925;-70
2023/06/20 05:22:51;;;;;;;;;;;19.00;99.90;;;;;;5010000;23;19940;-69
2023/06/20 05:25:16;;;;;;;;;;;19.10;99.90;;;;;;5002967;28;19917;-69
2023/06/20 05:27:42;;;;;;;;;;;19.10;99.90;;;;;;5010021;28;19917;-69
2023/06/20 05:30:11;;;;;;;;;;;19.10;99.90;;;;;;5023738;28;20298;-67
2023/06/20 05:32:37;;;;;;;;;;;19.20;99.90;;;;;;5008921;28;20505;-67
2023/06/20 05:35:04;;;;;;;;;;;19.20;99.90;;;;;;4994129;28;20278;-68
2023/06/20 05:37:30;;;;;;;;;;;19.20;99.90;;;;;;5027205;28;19917;-66
2023/06/20 05:39:56;;;;;;;;;;;19.20;99.90;;;;;;5001663;28;19929;-67
2023/06/20 05:42:22;;;;;;;;;;;19.20;99.90;;;;;;5002876;28;19925;-68
2023/06/20 05:44:47;;;;;;;;;;;19.20;99.90;;;;;;4988060;28;19994;-68
2023/06/20 05:47:17;;;;;;;;;;;19.30;99.90;;;;;;5007255;28;19925;-70
2023/06/20 05:49:46;;;;;;;;;;;19.30;99.90;;;;;;4997745;28;19990;-70
2023/06/20 05:52:12;;;;;;;;;;;19.30;99.90;;;;;;4997246;28;19921;-70
2023/06/20 05:54:37;;;;;;;;;;;19.30;99.90;;;;;;5007929;28;19925;-70
2023/06/20 05:57:05;;;;;;;;;;;19.30;99.90;;;;;;4995271;28;19971;-71
2023/06/20 05:59:31;;;;;;;;;;;19.40;99.90;;;;;;5005264;28;20429;-75
2023/06/20 06:01:56;;;;;;;;;;;19.40;99.90;;;;;;5005251;28;19925;-73
2023/06/20 06:04:22;;;;;;;;;;;19.50;99.90;;;;;;5020155;28;20378;-73
2023/06/20 06:06:48;;;;;;;;;;;19.50;99.90;;;;;;4997146;28;19928;-74
2023/06/20 06:09:15;;;;;;;;;;;19.60;99.90;;;;;;4985970;28;19982;-72
2023/06/20 06:11:40;;;;;;;;;;;19.60;99.90;;;;;;5010081;28;19967;-70
2023/06/20 06:14:06;;;;;;;;;;;19.70;99.90;;;;;;5008889;28;20299;-76
2023/06/20 06:16:31;;;;;;;;;;;19.80;99.90;;;;;;5001144;28;19932;-71
2023/06/20 06:18:57;;;;;;;;;;;19.90;99.90;;;;;;5007058;28;20075;-69
2023/06/20 06:21:25;;;;;;;;;;;20.00;99.90;;;;;;5010384;28;19920;-71
2023/06/20 06:23:51;;;;;;;;;;;20.10;99.90;;;;;;4993446;28;19924;-71
2023/06/20 06:26:16;;;;;;;;;;;20.20;99.90;;;;;;5003206;28;19929;-77
2023/06/20 06:28:41;;;;;;;;;;;20.30;99.90;;;;;;5004068;28;19921;-77
2023/06/20 06:31:09;;;;;;;;;;;20.40;99.90;;;;;;4997595;28;19921;-76
2023/06/20 06:33:34;;;;;;;;;;;20.50;99.90;;;;;;4989231;28;19921;-76
2023/06/20 06:36:00;;;;;;;;;;;20.50;99.90;;;;;;4999672;28;19917;-74
2023/06/20 06:38:26;;;;;;;;;;;20.60;99.90;;;;;;4999189;28;19916;-72
2023/06/20 06:40:54;;;;;;;;;;;20.60;99.90;;;;;;5004162;28;19959;-76
2023/06/20 06:43:20;;;;;;;;;;;20.70;99.90;;;;;;5001975;28;19917;-74
2023/06/20 06:45:46;;;;;;;;;;;20.70;99.90;;;;;;5013747;28;20373;-75
2023/06/20 06:48:11;;;;;;;;;;;20.80;99.90;;;;;;5012799;28;20059;-73
2023/06/20 06:50:37;;;;;;;;;;;20.80;99.90;;;;;;4983760;28;19917;-77
2023/06/20 06:53:02;;;;;;;;;;;20.80;99.90;;;;;;5008869;28;20118;-76
2023/06/20 06:55:28;;;;;;;;;;;20.80;99.90;;;;;;5014711;28;20047;-69
2023/06/20 06:57:53;;;;;;;;;;;20.90;99.90;;;;;;5009033;28;19992;-69
2023/06/20 07:00:19;;;;;;;;;;;20.90;99.90;;;;;;5004304;28;20004;-69
2023/06/20 07:02:44;;;;;;;;;;;20.90;99.90;;;;;;5015668;28;20096;-69
2023/06/20 07:05:10;;;;;;;;;;;21.00;99.90;;;;;;5022574;28;19917;-69
2023/06/20 07:07:36;;;;;;;;;;;21.10;99.90;;;;;;5011892;28;20039;-69
2023/06/20 07:10:02;;;;;;;;;;;21.10;99.90;;;;;;5002593;28;19979;-70
2023/06/20 07:12:27;;;;;;;;;;;21.10;99.90;;;;;;5004270;28;20287;-69
2023/06/20 07:14:56;;;;;;;;;;;21.20;99.90;;;;;;5029795;28;19917;-72
2023/06/20 07:17:25;;;;;;;;;;;21.30;99.90;;;;;;5012647;28;19924;-69
2023/06/20 07:19:51;;;;;;;;;;;21.30;99.90;;;;;;5029571;28;19984;-69
2023/06/20 07:22:17;;;;;;;;;;;21.40;99.90;;;;;;5029853;28;19917;-68
2023/06/20 07:24:43;;;;;;;;;;;21.40;99.90;;;;;;5010471;28;19916;-69
2023/06/20 07:27:08;;;;;;;;;;;21.40;99.90;;;;;;5013182;28;19928;-69
2023/06/20 07:29:34;;;;;;;;;;;21.50;99.90;;;;;;5000709;28;20706;-69
2023/06/20 07:31:59;;;;;;;;;;;21.50;99.90;;;;;;5022321;28;19923;-69
2023/06/20 07:34:25;;;;;;;;;;;21.50;99.90;;;;;;5036812;28;19932;-69
2023/06/20 07:36:50;;;;;;;;;;;21.50;99.90;;;;;;5030324;28;20339;-69
2023/06/20 07:39:16;;;;;;;;;;;21.50;99.90;;;;;;5026593;28;19973;-71
2023/06/20 07:41:41;;;;;;;;;;;21.50;99.90;;;;;;5011821;28;19932;-69
2023/06/20 07:44:10;;;;;;;;;;;21.60;99.90;;;;;;5012601;28;19917;-68
2023/06/20 07:46:36;;;;;;;;;;;21.60;99.90;;;;;;5014046;28;20355;-68
2023/06/20 07:49:02;;;;;;;;;;;21.60;99.90;;;;;;5010286;28;19924;-69
2023/06/20 07:51:31;;;;;;;;;;;21.60;99.90;;;;;;5034968;28;19921;-69
2023/06/20 07:53:56;;;;;;;;;;;21.60;99.90;;;;;;5008123;28;19916;-68
2023/06/20 07:56:22;;;;;;;;;;;21.60;99.90;;;;;;5033309;28;19917;-68
2023/06/20 07:58:47;;;;;;;;;;;21.70;99.90;;;;;;4999560;28;20401;-69
2023/06/20 08:01:13;;;;;;;;;;;21.70;99.90;;;;;;5008998;28;19921;-69
2023/06/20 08:03:38;;;;;;;;;;;21.70;99.90;;;;;;5009947;28;20003;-68
2023/06/20 08:06:04;;;;;;;;;;;21.80;99.90;;;;;;5010999;28;20272;-69
2023/06/20 08:08:29;;;;;;;;;;;21.80;99.90;;;;;;5010928;28;20004;-68
2023/06/20 08:10:55;;;;;;;;;;;21.90;99.90;;;;;;5028899;28;19917;-69
2023/06/20 08:13:21;;;;;;;;;;;21.90;99.90;;;;;;5021424;28;19916;-69
2023/06/20 08:15:46;;;;;;;;;;;22.00;99.90;;;;;;5023719;28;19932;-69
2023/06/20 08:18:12;;;;;;;;;;;22.00;99.90;;;;;;5003035;28;20411;-69
2023/06/20 08:20:37;;;;;;;;;;;22.10;99.90;;;;;;5027481;28;19936;-69
2023/06/20 08:23:03;;;;;;;;;;;22.20;99.90;;;;;;5008698;28;19956;-69
2023/06/20 08:25:28;;;;;;;;;;;22.30;99.90;;;;;;5014769;28;19917;-69
2023/06/20 08:27:54;;;;;;;;;;;22.30;99.90;;;;;;5029578;28;19971;-69
2023/06/20 08:30:20;;;;;;;;;;;22.40;99.90;;;;;;5028682;28;20314;-69
2023/06/20 08:32:45;;;;;;;;;;;22.60;99.90;;;;;;5021734;28;19968;-69
2023/06/20 08:35:11;;;;;;;;;;;22.80;99.90;;;;;;5012612;28;19921;-68
2023/06/20 08:37:37;;;;;;;;;;;22.90;99.90;;;;;;5026446;28;19991;-69
2023/06/20 08:40:05;;;;;;;;;;;23.00;99.90;;;;;;5022297;28;19921;-69
2023/06/20 08:42:31;;;;;;;;;;;23.10;99.90;;;;;;5012787;28;19917;-69
2023/06/20 08:44:56;;;;;;;;;;;23.10;99.90;;;;;;5012451;28;19967;-69
2023/06/20 08:47:22;;;;;;;;;;;23.10;99.90;;;;;;4999743;28;19928;-69
2023/06/20 08:49:48;;;;;;;;;;;23.10;99.90;;;;;;5028714;28;19921;-69
2023/06/20 08:52:14;;;;;;;;;;;23.10;99.90;;;;;;5009557;28;20033;-68
2023/06/20 08:54:41;;;;;;;;;;;23.20;99.90;;;;;;4997018;28;19917;-69
2023/06/20 08:57:07;;;;;;;;;;;23.20;99.90;;;;;;5028369;28;19917;-68
2023/06/20 08:59:36;;;;;;;;;;;23.30;99.90;;;;;;4992062;28;20333;-70
2023/06/20 09:02:05;;;;;;;;;;;23.40;99.90;;;;;;5007936;28;19917;-69
2023/06/20 09:04:31;;;;;;;;;;;23.50;99.90;;;;;;5007405;28;19975;-70
2023/06/20 09:06:56;;;;;;;;;;;23.60;99.90;;;;;;5017957;28;19952;-69
2023/06/20 09:09:22;;;;;;;;;;;23.70;99.90;;;;;;5017441;28;19917;-69
2023/06/20 09:11:48;;;;;;;;;;;23.90;99.90;;;;;;5014768;28;19986;-70
2023/06/20 09:14:15;;;;;;;;;;;23.90;99.90;;;;;;5011443;28;19917;-70
2023/06/20 09:16:42;;;;;;;;;;;24.10;99.90;;;;;;5020331;28;19917;-70
2023/06/20 09:19:08;;;;;;;;;;;24.20;99.90;;;;;;5006609;28;20316;-70
2023/06/20 09:21:38;;;;;;;;;;;24.30;99.90;;;;;;5027463;28;19935;-70
2023/06/20 09:24:05;;;;;;;;;;;24.30;99.90;;;;;;5023103;28;19964;-70
2023/06/20 09:26:31;;;;;;;;;;;24.20;99.90;;;;;;5014385;28;19917;-69
2023/06/20 09:29:09;;;;;;;;;;;24.30;99.90;;;;;;4999238;28;19924;-69
2023/06/20 09:31:47;;;;;;;;;;;24.30;99.90;;;;;;5004939;28;19924;-70
2023/06/20 09:34:13;;;;;;;;;;;24.40;99.90;;;;;;5028659;28;19936;-69
2023/06/20 09:36:42;;;;;;;;;;;24.50;99.90;;;;;;4994044;28;19917;-69
2023/06/20 09:39:12;;;;;;;;;;;24.60;99.90;;;;;;5002732;28;20263;-69
2023/06/20 09:41:45;;;;;;;;;;;24.70;99.90;;;;;;4982275;28;19944;-70
2023/06/20 09:44:11;;;;;;;;;;;24.60;99.90;;;;;;5032221;28;19929;-70
2023/06/20 09:46:37;;;;;;;;;;;24.60;99.90;;;;;;5008348;28;19935;-70
2023/06/20 09:49:03;;;;;;;;;;;24.60;99.90;;;;;;5013823;28;20327;-69
2023/06/20 09:51:30;;;;;;;;;;;24.60;99.90;;;;;;5032613;28;19925;-70
2023/06/20 09:53:59;;;;;;;;;;;24.60;99.90;;;;;;5010001;28;20440;-70
2023/06/20 09:56:26;;;;;;;;;;;24.70;99.90;;;;;;5014783;28;19972;-70
2023/06/20 09:58:52;;;;;;;;;;;24.80;99.90;;;;;;5011829;28;19924;-70
2023/06/20 10:01:20;;;;;;;;;;;25.00;99.90;;;;;;5014313;28;20363;-70
2023/06/20 10:03:46;;;;;;;;;;;25.10;99.90;;;;;;5029095;28;20403;-69
2023/06/20 10:06:13;;;;;;;;;;;25.20;99.90;;;;;;5006071;28;20028;-70
2023/06/20 10:08:39;;;;;;;;;;;25.30;99.90;;;;;;5012413;28;19974;-70
2023/06/20 10:11:05;;;;;;;;;;;25.50;99.90;;;;;;5032315;28;19967;-70
2023/06/20 10:13:31;;;;;;;;;;;25.60;99.90;;;;;;5013271;28;20428;-70
2023/06/20 10:15:59;;;;;;;;;;;25.70;99.90;;;;;;5014506;28;19917;-70
2023/06/20 10:18:27;;;;;;;;;;;25.80;99.90;;;;;;5031136;28;19916;-71
2023/06/20 10:20:53;;;;;;;;;;;25.90;99.90;;;;;;5017935;28;19925;-70
2023/06/20 10:23:21;;;;;;;;;;;26.00;99.90;;;;;;5031393;28;20051;-71
2023/06/20 10:25:53;;;;;;;;;;;26.10;99.90;;;;;;5018443;28;19937;-70
2023/06/20 10:28:20;;;;;;;;;;;26.30;99.90;;;;;;5022328;28;19931;-70
2023/06/20 10:30:45;;;;;;;;;;;26.30;99.90;;;;;;5013436;28;20013;-70
2023/06/20 10:33:11;;;;;;;;;;;26.40;99.90;;;;;;5029207;28;20320;-70
2023/06/20 10:35:56;;;;;;;;;;;26.50;99.90;;;;;;5014124;28;19928;-71
2023/06/20 10:38:22;;;;;;;;;;;26.60;99.90;;;;;;5014095;28;20379;-71
2023/06/20 10:40:47;;;;;;;;;;;26.70;99.90;;;;;;5013846;28;20008;-71
2023/06/20 10:43:22;;;;;;;;;;;26.70;99.90;;;;;;5031702;28;20260;-71
2023/06/20 10:45:52;;;;;;;;;;;26.90;99.90;;;;;;5031461;28;19963;-71
2023/06/20 10:48:18;;;;;;;;;;;26.90;99.90;;;;;;4981078;28;20371;-71
2023/06/20 10:50:44;;;;;;;;;;;27.10;99.90;;;;;;5020990;28;20328;-71
2023/06/20 10:53:09;;;;;;;;;;;27.20;99.90;;;;;;5016953;28;19975;-71
2023/06/20 10:55:37;;;;;;;;;;;27.20;99.90;;;;;;5002228;28;19917;-70
2023/06/20 10:58:02;;;;;;;;;;;27.40;99.90;;;;;;5010669;28;19916;-71
2023/06/20 11:00:28;;;;;;;;;;;27.50;99.90;;;;;;5014409;28;20362;-70
2023/06/20 11:02:54;;;;;;;;;;;27.60;99.90;;;;;;5021963;28;19928;-70
2023/06/20 11:05:27;;;;;;;;;;;27.70;99.90;;;;;;4997552;28;20545;-70
2023/06/20 11:07:54;;;;;;;;;;;27.80;99.90;;;;;;5005554;28;19925;-71
2023/06/20 11:10:21;;;;;;;;;;;27.80;99.90;;;;;;5013476;28;19917;-70
2023/06/20 11:12:46;;;;;;;;;;;27.90;99.90;;;;;;5016928;28;19917;-71
2023/06/20 11:15:19;;;;;;;;;;;28.10;99.90;;;;;;5020150;28;19975;-71
2023/06/20 11:17:45;;;;;;;;;;;28.10;99.90;;;;;;5011296;28;19983;-70
2023/06/20 11:20:11;;;;;;;;;;;28.20;99.90;;;;;;5037958;28;19968;-70
2023/06/20 11:22:37;;;;;;;;;;;28.20;99.90;;;;;;5030801;28;19935;-70
2023/06/20 11:25:03;;;;;;;;;;;28.30;99.90;;;;;;5016415;28;19968;-69
2023/06/20 11:27:29;;;;;;;;;;;28.30;99.90;;;;;;5010984;28;19916;-69
2023/06/20 11:29:54;;;;;;;;;;;28.40;99.90;;;;;;5018226;28;20256;-71
2023/06/20 11:32:20;;;;;;;;;;;28.40;99.90;;;;;;5019906;28;19917;-70
2023/06/20 11:35:05;;;;;;;;;;;28.30;99.90;;;;;;5024200;28;20425;-70
2023/06/20 11:37:31;;;;;;;;;;;28.30;99.90;;;;;;5003809;28;20011;-70
2023/06/20 11:39:57;;;;;;;;;;;28.40;99.90;;;;;;5003892;28;20015;-71
2023/06/20 11:42:22;;;;;;;;;;;28.40;99.90;;;;;;5008726;28;19924;-71
2023/06/20 11:44:48;;;;;;;;;;;28.50;99.90;;;;;;5030142;28;19920;-71
2023/06/20 11:47:13;;;;;;;;;;;28.60;99.90;;;;;;5000351;28;19940;-71
2023/06/20 11:49:39;;;;;;;;;;;28.70;99.90;;;;;;5012768;28;19928;-71
2023/06/20 11:52:07;;;;;;;;;;;28.80;99.90;;;;;;5003705;28;20294;-71
2023/06/20 11:55:05;;;;;;;;;;;28.90;99.90;;;;;;5015597;28;19917;-70
2023/06/20 11:57:31;;;;;;;;;;;29.00;99.90;;;;;;4998045;28;19917;-71
2023/06/20 11:59:59;;;;;;;;;;;29.10;99.90;;;;;;5004632;28;19932;-71
2023/06/20 12:02:25;;;;;;;;;;;29.20;99.90;;;;;;5011608;28;19960;-70
2023/06/20 12:04:56;;;;;;;;;;;29.40;99.90;;;;;;5002164;28;20007;-71
2023/06/20 12:07:22;;;;;;;;;;;29.50;99.90;;;;;;5028022;28;20040;-71
2023/06/20 12:09:48;;;;;;;;;;;29.50;99.90;;;;;;5030128;28;19917;-71
2023/06/20 12:12:13;;;;;;;;;;;29.60;99.90;;;;;;5030271;28;19927;-70
2023/06/20 12:14:39;;;;;;;;;;;29.60;99.90;;;;;;5025058;28;19924;-71
2023/06/20 12:17:04;;;;;;;;;;;29.70;99.90;;;;;;5004121;28;19918;-70
2023/06/20 12:19:31;;;;;;;;;;;29.70;99.90;;;;;;5003370;28;19967;-70
2023/06/20 12:21:57;;;;;;;;;;;29.80;99.60;;;;;;4999964;28;19917;-71
2023/06/20 12:24:27;;;;;;;;;;;29.90;99.90;;;;;;5027302;28;20014;-71
2023/06/20 12:26:53;;;;;;;;;;;30.10;99.90;;;;;;5029214;28;19971;-71
2023/06/20 12:29:19;;;;;;;;;;;30.20;99.50;;;;;;5015854;28;20291;-71
2023/06/20 12:31:44;;;;;;;;;;;30.30;99.40;;;;;;5025448;28;19966;-70
2023/06/20 12:34:10;;;;;;;;;;;30.40;99.10;;;;;;5008978;28;19925;-69
2023/06/20 12:36:35;;;;;;;;;;;30.40;98.90;;;;;;5006826;28;19931;-70
2023/06/20 12:39:01;;;;;;;;;;;30.40;98.50;;;;;;5010400;28;20287;-69
2023/06/20 12:41:36;;;;;;;;;;;30.10;98.10;;;;;;5027112;28;20375;-70
2023/06/20 12:44:02;;;;;;;;;;;30.00;98.60;;;;;;5007581;28;19975;-70
2023/06/20 12:48:55;;;;;;;;;;;30.20;98.40;;;;;;5014049;28;19921;-67
2023/06/20 12:51:21;;;;;;;;;;;30.30;96.70;;;;;;5004033;28;19928;-67
2023/06/20 12:53:47;;;;;;;;;;;30.30;97.50;;;;;;5007854;28;19917;-67
2023/06/20 12:56:13;;;;;;;;;;;30.10;96.90;;;;;;5003421;28;19921;-68
2023/06/20 12:58:38;;;;;;;;;;;29.90;96.80;;;;;;5027270;28;19927;-67
2023/06/20 13:01:04;;;;;;;;;;;29.80;98.20;;;;;;5027455;28;20023;-67
2023/06/20 13:03:29;;;;;;;;;;;29.70;97.70;;;;;;5027768;28;20093;-68
2023/06/20 13:05:55;;;;;;;;;;;29.70;97.70;;;;;;5019340;28;20378;-67
2023/06/20 13:08:20;;;;;;;;;;;29.70;97.80;;;;;;5011875;28;19967;-67
2023/06/20 13:10:46;;;;;;;;;;;29.70;96.90;;;;;;5010991;28;19970;-68
2023/06/20 13:13:13;;;;;;;;;;;29.70;97.40;;;;;;5018468;28;19917;-67
2023/06/20 13:15:38;;;;;;;;;;;29.60;97.70;;;;;;5005018;28;19940;-68
2023/06/20 13:18:04;;;;;;;;;;;29.50;97.20;;;;;;5015274;28;19917;-67
2023/06/20 13:20:30;;;;;;;;;;;29.50;97.10;;;;;;5009707;28;20437;-67
2023/06/20 13:22:56;;;;;;;;;;;29.60;96.60;;;;;;5025765;28;19921;-67
2023/06/20 13:25:25;;;;;;;;;;;29.70;96.80;;;;;;5027880;28;20413;-67
2023/06/20 13:27:51;;;;;;;;;;;29.90;97.30;;;;;;5011963;28;19921;-67
2023/06/20 13:30:17;;;;;;;;;;;30.10;97.20;;;;;;5023169;28;19931;-68
2023/06/20 13:32:43;;;;;;;;;;;30.20;96.30;;;;;;5023535;28;19917;-67
2023/06/20 13:35:09;;;;;;;;;;;30.30;97.00;;;;;;5020465;28;20010;-68
2023/06/20 13:37:37;;;;;;;;;;;30.40;95.60;;;;;;4985366;28;19917;-68
2023/06/20 13:40:07;;;;;;;;;;;30.60;96.90;;;;;;4979537;28;19961;-68
2023/06/20 13:42:41;;;;;;;;;;;30.90;96.60;;;;;;5005511;28;19921;-68
2023/06/20 13:45:16;;;;;;;;;;;31.00;95.70;;;;;;5027282;28;19921;-68
2023/06/20 13:47:43;;;;;;;;;;;31.10;95.40;;;;;;4996635;28;19975;-68
2023/06/20 13:50:09;;;;;;;;;;;31.20;95.30;;;;;;5002985;28;20178;-68
2023/06/20 13:52:36;;;;;;;;;;;31.40;94.60;;;;;;5024065;28;19918;-68
2023/06/20 13:55:02;;;;;;;;;;;31.40;93.30;;;;;;5020820;28;19924;-68
2023/06/20 13:57:27;;;;;;;;;;;31.40;93.50;;;;;;4998714;28;20282;-68
2023/06/20 13:59:53;;;;;;;;;;;31.40;93.80;;;;;;5000095;28;20004;-68
2023/06/20 14:02:19;;;;;;;;;;;31.50;94.30;;;;;;5011995;28;20000;-68
2023/06/20 14:04:44;;;;;;;;;;;31.60;93.90;;;;;;4993509;28;19959;-69
2023/06/20 14:07:10;;;;;;;;;;;31.70;92.50;;;;;;5011917;28;20323;-69
2023/06/20 14:09:36;;;;;;;;;;;31.60;92.00;;;;;;5005778;28;20000;-69
2023/06/20 14:12:02;;;;;;;;;;;31.40;92.00;;;;;;5027430;28;19931;-69
2023/06/20 14:14:28;;;;;;;;;;;31.40;92.20;;;;;;5011400;28;19920;-69
2023/06/20 14:16:56;;;;;;;;;;;31.30;91.80;;;;;;5010508;28;19977;-69